DHBMD TNCA-TNCC
Flight info
| Callsign | DHBMD |
|---|---|
| Flight time | 0h 45m |
| Altitude | 3000 |
| Route | TNCA DCT TNCA |
| Aircraft | A139/L-SFG/C |
Departure
| Time | 2026-04-21 17:21 |
|---|---|
| Airport | Queen Beatrix International Airport (TNCA) |
Arrival
| Time | 2026-04-21 18:07 |
|---|---|
| Airport | Hato International Airport (TNCC) |
| Time | Latitude | Longitude | Altitude | Speed | Heading |
|---|---|---|---|---|---|
| 2026-04-21 17:05 | 12.49974 | -70.01492 | 46 ft | 0 kts | 13° |
| 2026-04-21 17:20 | 12.49966 | -70.01490 | 89 ft | 10 kts | 136° |
| 2026-04-21 17:20 | 12.49907 | -70.01559 | 506 ft | 30 kts | 248° |
| 2026-04-21 17:20 | 12.49756 | -70.01699 | 1090 ft | 37 kts | 237° |
| 2026-04-21 17:21 | 12.49531 | -70.01837 | 1580 ft | 46 kts | 241° |
| 2026-04-21 17:21 | 12.49219 | -70.01984 | 2047 ft | 45 kts | 275° |
| 2026-04-21 17:21 | 12.48833 | -70.02254 | 1955 ft | 83 kts | 241° |
| 2026-04-21 17:21 | 12.48442 | -70.02934 | 1801 ft | 115 kts | 226° |
| 2026-04-21 17:22 | 12.48227 | -70.03243 | 1935 ft | 37 kts | 44° |
| 2026-04-21 17:22 | 12.48135 | -70.03117 | 2385 ft | 56 kts | 305° |
| 2026-04-21 17:22 | 12.47928 | -70.03503 | 2769 ft | 78 kts | 292° |
| 2026-04-21 17:22 | 12.47522 | -70.03989 | 3360 ft | 95 kts | 220° |
| 2026-04-21 17:23 | 12.46894 | -70.04436 | 4157 ft | 105 kts | 216° |
| 2026-04-21 17:23 | 12.46476 | -70.05050 | 4324 ft | 105 kts | 228° |
| 2026-04-21 17:23 | 12.46134 | -70.05595 | 4198 ft | 110 kts | 230° |
| 2026-04-21 17:23 | 12.45680 | -70.06305 | 4046 ft | 111 kts | 221° |
| 2026-04-21 17:24 | 12.45093 | -70.06824 | 3887 ft | 107 kts | 192° |
| 2026-04-21 17:24 | 12.44369 | -70.07167 | 3699 ft | 108 kts | 192° |
| 2026-04-21 17:24 | 12.43645 | -70.07358 | 3532 ft | 95 kts | 155° |
| 2026-04-21 17:24 | 12.43045 | -70.07175 | 3392 ft | 83 kts | 139° |
| 2026-04-21 17:25 | 12.42539 | -70.06961 | 3218 ft | 75 kts | 130° |
| 2026-04-21 17:25 | 12.42099 | -70.06621 | 3007 ft | 72 kts | 121° |
| 2026-04-21 17:25 | 12.41699 | -70.06284 | 2814 ft | 73 kts | 121° |
| 2026-04-21 17:25 | 12.41261 | -70.05906 | 2626 ft | 73 kts | 120° |
| 2026-04-21 17:26 | 12.40861 | -70.05540 | 2440 ft | 73 kts | 119° |
| 2026-04-21 17:26 | 12.40487 | -70.05175 | 2262 ft | 70 kts | 112° |
| 2026-04-21 17:26 | 12.40118 | -70.04757 | 2061 ft | 72 kts | 115° |
| 2026-04-21 17:26 | 12.39797 | -70.04337 | 1809 ft | 78 kts | 137° |
| 2026-04-21 17:27 | 12.39656 | -70.03672 | 1461 ft | 101 kts | 109° |
| 2026-04-21 17:27 | 12.39511 | -70.02904 | 1620 ft | 97 kts | 110° |
| 2026-04-21 17:27 | 12.39406 | -70.02189 | 1824 ft | 98 kts | 110° |
| 2026-04-21 17:27 | 12.39350 | -70.01464 | 1989 ft | 92 kts | 102° |
| 2026-04-21 17:28 | 12.39370 | -70.00776 | 1946 ft | 88 kts | 85° |
| 2026-04-21 17:28 | 12.39538 | -70.00149 | 1923 ft | 89 kts | 75° |
| 2026-04-21 17:28 | 12.39799 | -69.99527 | 1941 ft | 89 kts | 75° |
| 2026-04-21 17:28 | 12.40042 | -69.98917 | 1946 ft | 88 kts | 74° |
| 2026-04-21 17:29 | 12.40256 | -69.98329 | 1951 ft | 89 kts | 74° |
| 2026-04-21 17:29 | 12.40450 | -69.97693 | 1960 ft | 89 kts | 74° |
| 2026-04-21 17:29 | 12.40692 | -69.97072 | 1942 ft | 92 kts | 55° |
| 2026-04-21 17:29 | 12.41259 | -69.96703 | 1957 ft | 95 kts | 28° |
| 2026-04-21 17:30 | 12.41944 | -69.96544 | 1939 ft | 102 kts | 11° |
| 2026-04-21 17:30 | 12.42709 | -69.96697 | 1943 ft | 109 kts | 346° |
| 2026-04-21 17:30 | 12.43357 | -69.97250 | 1935 ft | 118 kts | 315° |
| 2026-04-21 17:30 | 12.43800 | -69.97990 | 1950 ft | 119 kts | 308° |
| 2026-04-21 17:31 | 12.44098 | -69.98898 | 1936 ft | 122 kts | 288° |
| 2026-04-21 17:31 | 12.44341 | -69.99773 | 1955 ft | 121 kts | 291° |
| 2026-04-21 17:31 | 12.44607 | -70.00642 | 1942 ft | 121 kts | 293° |
| 2026-04-21 17:31 | 12.44895 | -70.01539 | 1930 ft | 121 kts | 299° |
| 2026-04-21 17:32 | 12.45225 | -70.02361 | 1932 ft | 121 kts | 298° |
| 2026-04-21 17:32 | 12.45581 | -70.03216 | 1951 ft | 121 kts | 299° |
| 2026-04-21 17:32 | 12.45937 | -70.04073 | 1953 ft | 121 kts | 298° |
| 2026-04-21 17:32 | 12.46282 | -70.04869 | 1948 ft | 120 kts | 302° |
| 2026-04-21 17:33 | 12.46926 | -70.05471 | 1955 ft | 110 kts | 339° |
| 2026-04-21 17:33 | 12.47709 | -70.05640 | 1898 ft | 107 kts | 8° |
| 2026-04-21 17:33 | 12.48539 | -70.05454 | 1853 ft | 131 kts | 18° |
| 2026-04-21 17:33 | 12.49479 | -70.05129 | 1958 ft | 133 kts | 22° |
| 2026-04-21 17:34 | 12.50420 | -70.04788 | 1993 ft | 131 kts | 21° |
| 2026-04-21 17:34 | 12.51299 | -70.04488 | 1975 ft | 132 kts | 21° |
| 2026-04-21 17:34 | 12.52215 | -70.04192 | 1956 ft | 132 kts | 21° |
| 2026-04-21 17:34 | 12.53123 | -70.03922 | 1950 ft | 133 kts | 21° |
| 2026-04-21 17:35 | 12.53972 | -70.03691 | 1944 ft | 133 kts | 20° |
| 2026-04-21 17:35 | 12.54917 | -70.03394 | 1950 ft | 133 kts | 25° |
| 2026-04-21 17:35 | 12.55697 | -70.02941 | 1959 ft | 127 kts | 48° |
| 2026-04-21 17:35 | 12.56259 | -70.02167 | 1971 ft | 123 kts | 68° |
| 2026-04-21 17:36 | 12.56296 | -70.01270 | 1941 ft | 127 kts | 104° |
| 2026-04-21 17:36 | 12.55864 | -70.00417 | 1953 ft | 128 kts | 114° |
| 2026-04-21 17:36 | 12.55291 | -69.99586 | 1950 ft | 130 kts | 122° |
| 2026-04-21 17:36 | 12.54703 | -69.98817 | 1951 ft | 130 kts | 121° |
| 2026-04-21 17:37 | 12.54110 | -69.98032 | 1958 ft | 131 kts | 121° |
| 2026-04-21 17:37 | 12.53449 | -69.97274 | 1953 ft | 132 kts | 127° |
| 2026-04-21 17:37 | 12.52812 | -69.96589 | 1961 ft | 131 kts | 127° |
| 2026-04-21 17:37 | 12.52148 | -69.95865 | 1957 ft | 131 kts | 127° |
| 2026-04-21 17:38 | 12.51473 | -69.95123 | 1956 ft | 131 kts | 127° |
| 2026-04-21 17:38 | 12.50823 | -69.94435 | 1931 ft | 133 kts | 132° |
| 2026-04-21 17:38 | 12.50046 | -69.93756 | 1966 ft | 132 kts | 133° |
| 2026-04-21 17:38 | 12.49308 | -69.93108 | 1959 ft | 132 kts | 133° |
| 2026-04-21 17:39 | 12.48569 | -69.92459 | 1952 ft | 132 kts | 133° |
| 2026-04-21 17:39 | 12.47789 | -69.91773 | 1949 ft | 132 kts | 133° |
| 2026-04-21 17:39 | 12.47048 | -69.91120 | 1934 ft | 134 kts | 132° |
| 2026-04-21 17:39 | 12.46285 | -69.90449 | 1946 ft | 133 kts | 132° |
| 2026-04-21 17:40 | 12.45499 | -69.89764 | 1952 ft | 132 kts | 133° |
| 2026-04-21 17:40 | 12.44790 | -69.89140 | 1927 ft | 133 kts | 133° |
| 2026-04-21 17:40 | 12.44017 | -69.88457 | 1933 ft | 133 kts | 133° |
| 2026-04-21 17:40 | 12.43244 | -69.87780 | 1940 ft | 132 kts | 133° |
| 2026-04-21 17:41 | 12.42536 | -69.87154 | 1933 ft | 134 kts | 133° |
| 2026-04-21 17:41 | 12.41783 | -69.86484 | 1946 ft | 133 kts | 132° |
| 2026-04-21 17:41 | 12.41034 | -69.85812 | 1950 ft | 131 kts | 133° |
| 2026-04-21 17:41 | 12.40335 | -69.85194 | 1932 ft | 132 kts | 133° |
| 2026-04-21 17:42 | 12.39596 | -69.84540 | 1928 ft | 132 kts | 133° |
| 2026-04-21 17:42 | 12.38846 | -69.83880 | 1914 ft | 133 kts | 133° |
| 2026-04-21 17:42 | 12.38127 | -69.83250 | 1923 ft | 132 kts | 133° |
| 2026-04-21 17:42 | 12.37388 | -69.82561 | 1904 ft | 131 kts | 124° |
| 2026-04-21 17:43 | 12.36886 | -69.81715 | 1932 ft | 127 kts | 112° |
| 2026-04-21 17:43 | 12.36477 | -69.80903 | 1923 ft | 127 kts | 112° |
| 2026-04-21 17:43 | 12.36026 | -69.80021 | 1913 ft | 128 kts | 112° |
| 2026-04-21 17:43 | 12.35578 | -69.79140 | 1930 ft | 127 kts | 112° |
| 2026-04-21 17:44 | 12.35157 | -69.78316 | 1926 ft | 127 kts | 112° |
| 2026-04-21 17:44 | 12.34858 | -69.77382 | 1934 ft | 125 kts | 100° |
| 2026-04-21 17:44 | 12.34635 | -69.76482 | 1938 ft | 124 kts | 101° |
| 2026-04-21 17:44 | 12.34412 | -69.75588 | 1924 ft | 126 kts | 101° |
| 2026-04-21 17:45 | 12.34171 | -69.74616 | 1929 ft | 126 kts | 101° |
| 2026-04-21 17:45 | 12.33946 | -69.73720 | 1940 ft | 125 kts | 101° |
| 2026-04-21 17:45 | 12.33715 | -69.72799 | 1924 ft | 126 kts | 101° |
| 2026-04-21 17:45 | 12.33474 | -69.71850 | 1927 ft | 125 kts | 101° |
| 2026-04-21 17:46 | 12.33248 | -69.70965 | 1924 ft | 125 kts | 101° |
| 2026-04-21 17:46 | 12.33009 | -69.70024 | 1928 ft | 125 kts | 101° |
| 2026-04-21 17:46 | 12.32781 | -69.69115 | 1928 ft | 125 kts | 101° |
| 2026-04-21 17:46 | 12.32562 | -69.68231 | 1926 ft | 125 kts | 101° |
| 2026-04-21 17:47 | 12.32328 | -69.67284 | 1923 ft | 125 kts | 101° |
| 2026-04-21 17:47 | 12.32118 | -69.66434 | 1929 ft | 125 kts | 101° |
| 2026-04-21 17:47 | 12.31902 | -69.65550 | 1930 ft | 125 kts | 100° |
| 2026-04-21 17:47 | 12.31668 | -69.64608 | 1925 ft | 125 kts | 101° |
| 2026-04-21 17:48 | 12.31531 | -69.64059 | 1931 ft | 125 kts | 101° |
| 2026-04-21 17:48 | 12.31233 | -69.62871 | 1923 ft | 125 kts | 101° |
| 2026-04-21 17:48 | 12.30995 | -69.61920 | 1913 ft | 126 kts | 101° |
| 2026-04-21 17:48 | 12.30766 | -69.61008 | 1922 ft | 126 kts | 101° |
| 2026-04-21 17:49 | 12.30537 | -69.60098 | 1918 ft | 127 kts | 101° |
| 2026-04-21 17:49 | 12.30300 | -69.59148 | 1935 ft | 126 kts | 101° |
| 2026-04-21 17:49 | 12.30075 | -69.58245 | 1928 ft | 126 kts | 101° |
| 2026-04-21 17:49 | 12.29852 | -69.57333 | 1928 ft | 125 kts | 101° |
| 2026-04-21 17:50 | 12.29618 | -69.56370 | 1920 ft | 125 kts | 101° |
| 2026-04-21 17:50 | 12.29396 | -69.55463 | 1914 ft | 126 kts | 101° |
| 2026-04-21 17:50 | 12.29172 | -69.54546 | 1919 ft | 125 kts | 101° |
| 2026-04-21 17:50 | 12.28937 | -69.53591 | 1917 ft | 125 kts | 100° |
| 2026-04-21 17:51 | 12.28718 | -69.52698 | 1916 ft | 125 kts | 100° |
| 2026-04-21 17:51 | 12.28490 | -69.51785 | 1907 ft | 125 kts | 100° |
| 2026-04-21 17:51 | 12.28253 | -69.50836 | 1908 ft | 125 kts | 101° |
| 2026-04-21 17:51 | 12.28027 | -69.49946 | 1910 ft | 126 kts | 101° |
| 2026-04-21 17:52 | 12.27792 | -69.49005 | 1908 ft | 126 kts | 100° |
| 2026-04-21 17:52 | 12.27555 | -69.48055 | 1915 ft | 126 kts | 101° |
| 2026-04-21 17:52 | 12.27342 | -69.47176 | 1913 ft | 126 kts | 100° |
| 2026-04-21 17:52 | 12.27114 | -69.46227 | 1912 ft | 126 kts | 100° |
| 2026-04-21 17:53 | 12.26886 | -69.45281 | 1910 ft | 126 kts | 100° |
| 2026-04-21 17:53 | 12.26671 | -69.44399 | 1911 ft | 126 kts | 101° |
| 2026-04-21 17:53 | 12.26440 | -69.43447 | 1916 ft | 125 kts | 100° |
| 2026-04-21 17:53 | 12.26209 | -69.42499 | 1911 ft | 126 kts | 101° |
| 2026-04-21 17:54 | 12.26007 | -69.41668 | 1910 ft | 126 kts | 100° |
| 2026-04-21 17:54 | 12.25777 | -69.40739 | 1910 ft | 126 kts | 100° |
| 2026-04-21 17:54 | 12.25544 | -69.39806 | 1910 ft | 126 kts | 100° |
| 2026-04-21 17:54 | 12.25322 | -69.38934 | 1905 ft | 127 kts | 101° |
| 2026-04-21 17:55 | 12.25103 | -69.38035 | 1908 ft | 127 kts | 100° |
| 2026-04-21 17:55 | 12.24982 | -69.37147 | 1904 ft | 125 kts | 77° |
| 2026-04-21 17:55 | 12.25410 | -69.36360 | 1920 ft | 125 kts | 56° |
| 2026-04-21 17:55 | 12.25726 | -69.35498 | 1906 ft | 126 kts | 88° |
| 2026-04-21 17:56 | 12.25538 | -69.34598 | 1933 ft | 124 kts | 88° |
| 2026-04-21 17:56 | 12.25678 | -69.33743 | 1937 ft | 123 kts | 80° |
| 2026-04-21 17:56 | 12.25769 | -69.32870 | 1926 ft | 123 kts | 84° |
| 2026-04-21 17:56 | 12.25798 | -69.31997 | 1915 ft | 124 kts | 87° |
| 2026-04-21 17:57 | 12.25780 | -69.31109 | 1919 ft | 124 kts | 90° |
| 2026-04-21 17:57 | 12.25724 | -69.30222 | 1924 ft | 125 kts | 91° |
| 2026-04-21 17:57 | 12.25639 | -69.29327 | 1922 ft | 126 kts | 93° |
| 2026-04-21 17:57 | 12.25533 | -69.28451 | 1933 ft | 125 kts | 94° |
| 2026-04-21 17:58 | 12.25407 | -69.27563 | 1935 ft | 125 kts | 95° |
| 2026-04-21 17:58 | 12.25268 | -69.26680 | 1929 ft | 125 kts | 96° |
| 2026-04-21 17:58 | 12.25117 | -69.25810 | 1941 ft | 124 kts | 97° |
| 2026-04-21 17:58 | 12.24956 | -69.24927 | 1926 ft | 125 kts | 98° |
| 2026-04-21 17:59 | 12.24791 | -69.24058 | 1929 ft | 124 kts | 98° |
| 2026-04-21 17:59 | 12.24619 | -69.23180 | 1928 ft | 125 kts | 98° |
| 2026-04-21 17:59 | 12.24447 | -69.22318 | 1924 ft | 125 kts | 98° |
| 2026-04-21 17:59 | 12.24266 | -69.21424 | 1922 ft | 126 kts | 99° |
| 2026-04-21 18:00 | 12.24090 | -69.20567 | 1930 ft | 126 kts | 99° |
| 2026-04-21 18:00 | 12.23910 | -69.19698 | 1936 ft | 126 kts | 99° |
| 2026-04-21 18:00 | 12.23726 | -69.18816 | 1928 ft | 126 kts | 99° |
| 2026-04-21 18:00 | 12.23543 | -69.17944 | 1935 ft | 126 kts | 99° |
| 2026-04-21 18:01 | 12.23357 | -69.17052 | 1932 ft | 126 kts | 99° |
| 2026-04-21 18:01 | 12.23171 | -69.16172 | 1928 ft | 126 kts | 98° |
| 2026-04-21 18:01 | 12.22983 | -69.15282 | 1939 ft | 125 kts | 98° |
| 2026-04-21 18:01 | 12.22798 | -69.14399 | 1928 ft | 126 kts | 98° |
| 2026-04-21 18:02 | 12.22612 | -69.13512 | 1930 ft | 126 kts | 99° |
| 2026-04-21 18:02 | 12.22428 | -69.12640 | 1932 ft | 126 kts | 99° |
| 2026-04-21 18:02 | 12.22234 | -69.11719 | 1927 ft | 127 kts | 99° |
| 2026-04-21 18:02 | 12.22049 | -69.10842 | 2044 ft | 114 kts | 101° |
| 2026-04-21 18:03 | 12.21897 | -69.10112 | 1983 ft | 96 kts | 99° |
| 2026-04-21 18:03 | 12.21749 | -69.09424 | 1889 ft | 91 kts | 98° |
| 2026-04-21 18:03 | 12.21599 | -69.08715 | 1880 ft | 93 kts | 98° |
| 2026-04-21 18:03 | 12.21459 | -69.08065 | 1903 ft | 91 kts | 98° |
| 2026-04-21 18:04 | 12.21313 | -69.07369 | 1902 ft | 92 kts | 98° |
| 2026-04-21 18:04 | 12.21166 | -69.06677 | 1882 ft | 91 kts | 98° |
| 2026-04-21 18:04 | 12.21024 | -69.06003 | 1778 ft | 92 kts | 98° |
| 2026-04-21 18:04 | 12.20877 | -69.05304 | 1648 ft | 92 kts | 98° |
| 2026-04-21 18:05 | 12.20742 | -69.04666 | 1596 ft | 77 kts | 99° |
| 2026-04-21 18:05 | 12.20632 | -69.04155 | 1458 ft | 62 kts | 97° |
| 2026-04-21 18:05 | 12.20530 | -69.03680 | 1353 ft | 60 kts | 97° |
| 2026-04-21 18:05 | 12.20406 | -69.03291 | 1856 ft | 61 kts | 125° |
| 2026-04-21 18:06 | 12.20232 | -69.02916 | 1923 ft | 68 kts | 92° |
| 2026-04-21 18:06 | 12.20160 | -69.02346 | 1498 ft | 71 kts | 94° |
| 2026-04-21 18:06 | 12.20084 | -69.01869 | 1263 ft | 66 kts | 103° |
| 2026-04-21 18:06 | 12.20052 | -69.01378 | 1090 ft | 63 kts | 110° |
| 2026-04-21 18:07 | 12.19977 | -69.00916 | 998 ft | 58 kts | 109° |
| 2026-04-21 18:07 | 12.19903 | -69.00550 | 938 ft | 38 kts | 108° |
| 2026-04-21 18:07 | 12.19845 | -69.00264 | 868 ft | 36 kts | 111° |
| 2026-04-21 18:07 | 12.19738 | -69.00009 | 779 ft | 36 kts | 109° |
| 2026-04-21 18:08 | 12.19672 | -68.99704 | 824 ft | 49 kts | 110° |
| 2026-04-21 18:08 | 12.19573 | -68.99267 | 706 ft | 65 kts | 108° |
| 2026-04-21 18:08 | 12.19476 | -68.98737 | 520 ft | 75 kts | 109° |
| 2026-04-21 18:08 | 12.19373 | -68.98210 | 386 ft | 73 kts | 110° |
| 2026-04-21 18:09 | 12.19290 | -68.97731 | 229 ft | 48 kts | 112° |
| 2026-04-21 18:09 | 12.19219 | -68.97440 | 165 ft | 37 kts | 111° |
| 2026-04-21 18:09 | 12.19157 | -68.97182 | 144 ft | 30 kts | 107° |
| 2026-04-21 18:09 | 12.19119 | -68.96981 | 100 ft | 19 kts | 113° |
| 2026-04-21 18:10 | 12.19091 | -68.96896 | 85 ft | 7 kts | 156° |
| 2026-04-21 18:10 | 12.18943 | -68.96841 | 76 ft | 28 kts | 134° |
| 2026-04-21 18:10 | 12.18889 | -68.96814 | 39 ft | 0 kts | 168° |
| 2026-04-21 18:10 | 12.18859 | -68.96800 | 39 ft | 8 kts | 152° |
| 2026-04-21 18:11 | 12.18805 | -68.96799 | 40 ft | 6 kts | 194° |
| 2026-04-21 18:11 | 12.18799 | -68.96800 | 40 ft | 0 kts | 193° |